Time;durP1;ratioP1;P1;durP2;ratioP2;P2;SDS_P1;SDS_P2;PMS_P1;PMS_P2;Temp;Humidity;BMP_temperature;BMP_pressure;BME280_temperature;BME280_humidity;BME280_pressure;Samples;Min_cycle;Max_cycle;Signal;HPM_P1;HPM_P2
2023/05/30 00:00:26;;;;;;;;;;;;;;;18.27;35.60;102517.97;7353095;19;19919;-59
2023/05/30 00:02:52;;;;;;;;;;;;;;;18.22;35.69;102519.88;7357496;19;19926;-59
2023/05/30 00:05:17;;;;;;;;;;;;;;;18.16;36.12;102514.75;7353758;19;19933;-59
2023/05/30 00:07:42;;;;;;;;;;;;;;;18.11;36.07;102512.22;7358269;19;19946;-59
2023/05/30 00:10:08;;;;;;;;;;;;;;;17.73;35.97;102457.66;7356319;19;20719;-59
2023/05/30 00:12:33;;;;;;;;;;;;;;;18.03;35.89;102515.94;7357292;19;20142;-59
2023/05/30 00:14:59;;;;;;;;;;;;;;;17.99;36.31;102516.91;7354252;19;20264;-59
2023/05/30 00:17:25;;;;;;;;;;;;;;;17.94;36.14;102503.81;7356032;19;19930;-59
2023/05/30 00:19:52;;;;;;;;;;;;;;;17.90;36.24;102510.09;7357802;19;19923;-59
2023/05/30 00:22:19;;;;;;;;;;;;;;;17.85;36.10;102504.06;7358024;19;20454;-59
2023/05/30 00:24:45;;;;;;;;;;;;;;;17.81;36.11;102513.84;7354707;19;20015;-57
2023/05/30 00:27:10;;;;;;;;;;;;;;;17.76;36.20;102504.28;7352555;19;19923;-59
2023/05/30 00:29:36;;;;;;;;;;;;;;;17.72;36.27;102519.31;7356319;19;19930;-58
2023/05/30 00:32:01;;;;;;;;;;;;;;;17.63;36.30;102512.44;7354468;19;20415;-59
2023/05/30 00:34:26;;;;;;;;;;;;;;;17.60;36.62;102514.31;7354830;19;19930;-59
2023/05/30 00:36:51;;;;;;;;;;;;;;;17.54;36.37;102510.03;7355915;19;19915;-60
2023/05/30 00:39:18;;;;;;;;;;;;;;;17.50;36.31;102520.72;7355321;19;19940;-59
2023/05/30 00:41:43;;;;;;;;;;;;;;;17.46;36.78;102519.03;7354064;19;20267;-59
2023/05/30 00:44:08;;;;;;;;;;;;;;;17.40;36.51;102513.91;7352959;19;19983;-59
2023/05/30 00:46:34;;;;;;;;;;;;;;;17.34;36.80;102509.63;7356365;19;19978;-59
2023/05/30 00:48:59;;;;;;;;;;;;;;;17.29;37.04;102517.66;7355083;19;19919;-60
2023/05/30 00:51:28;;;;;;;;;;;;;;;17.24;36.81;102513.38;7352979;19;19936;-58
2023/05/30 00:53:54;;;;;;;;;;;;;;;17.18;36.81;102516.09;7351054;19;20890;-59
2023/05/30 00:56:19;;;;;;;;;;;;;;;17.14;36.79;102519.75;7356271;19;19918;-59
2023/05/30 00:58:45;;;;;;;;;;;;;;;17.09;36.93;102517.19;7363649;19;19937;-58
2023/05/30 01:01:10;;;;;;;;;;;;;;;17.04;36.92;102519.06;7361053;19;19935;-58
2023/05/30 01:03:37;;;;;;;;;;;;;;;16.99;36.99;102518.28;7361218;19;19915;-59
2023/05/30 01:06:06;;;;;;;;;;;;;;;16.94;36.95;102512.25;7362254;19;19929;-59
2023/05/30 01:08:32;;;;;;;;;;;;;;;16.91;37.46;102517.56;7360371;19;19995;-59
2023/05/30 01:11:18;;;;;;;;;;;;;;;16.88;36.99;102517.59;7358544;19;19998;-59
2023/05/30 01:13:48;;;;;;;;;;;;;;;16.83;37.50;102515.97;7357822;19;20514;-58
2023/05/30 01:16:16;;;;;;;;;;;;;;;16.81;37.59;102520.38;7356544;19;19926;-59
2023/05/30 01:18:44;;;;;;;;;;;;;;;16.78;37.19;102523.09;7363294;19;20006;-59
2023/05/30 01:21:15;;;;;;;;;;;;;;;16.75;37.63;102522.28;7359494;19;19919;-59
2023/05/30 01:24:00;;;;;;;;;;;;;;;16.72;37.42;102522.31;7356910;19;19963;-59
2023/05/30 01:26:37;;;;;;;;;;;;;;;16.69;37.67;102523.22;7358050;19;19918;-59
2023/05/30 01:29:04;;;;;;;;;;;;;;;16.66;37.85;102518.00;7363771;19;19923;-59
2023/05/30 01:31:31;;;;;;;;;;;;;;;16.63;37.70;102522.50;7360231;19;20382;-57
2023/05/30 01:33:57;;;;;;;;;;;;;;;16.59;38.02;102524.31;7361089;19;19919;-59
2023/05/30 01:36:22;;;;;;;;;;;;;;;16.57;37.70;102523.44;7353304;19;19950;-59
2023/05/30 01:38:48;;;;;;;;;;;;;;;16.53;38.17;102525.28;7363037;19;19915;-59
2023/05/30 01:41:20;;;;;;;;;;;;;;;16.51;38.03;102520.94;7357229;19;19927;-56
2023/05/30 01:43:45;;;;;;;;;;;;;;;16.48;38.09;102532.41;7361098;19;20241;-58
2023/05/30 01:46:13;;;;;;;;;;;;;;;16.46;38.02;102522.78;7359685;19;19930;-59
2023/05/30 01:48:38;;;;;;;;;;;;;;;16.44;38.35;102521.94;7361289;19;19927;-59
2023/05/30 01:51:07;;;;;;;;;;;;;;;16.40;37.97;102525.53;7359484;19;19964;-59
2023/05/30 01:53:37;;;;;;;;;;;;;;;16.38;38.30;102522.94;7360209;19;20419;-59
2023/05/30 01:56:05;;;;;;;;;;;;;;;16.34;37.99;102527.38;7357800;19;20312;-59
2023/05/30 01:58:32;;;;;;;;;;;;;;;16.31;38.60;102522.16;7347913;19;20026;-60
2023/05/30 02:00:58;;;;;;;;;;;;;;;16.30;38.25;102520.41;7357010;19;19935;-59
2023/05/30 02:03:24;;;;;;;;;;;;;;;16.17;38.82;102508.38;7355039;19;20212;-58
2023/05/30 02:05:49;;;;;;;;;;;;;;;16.25;38.74;102527.53;7359562;19;20347;-59
2023/05/30 02:08:14;;;;;;;;;;;;;;;16.23;38.80;102529.34;7351167;19;20391;-57
2023/05/30 02:10:40;;;;;;;;;;;;;;;16.20;38.90;102532.00;7360583;19;20645;-59
2023/05/30 02:13:05;;;;;;;;;;;;;;;16.18;38.85;102536.47;7354486;19;19935;-58
2023/05/30 02:15:30;;;;;;;;;;;;;;;16.15;39.08;102531.22;7356408;19;19918;-58
2023/05/30 02:17:55;;;;;;;;;;;;;;;16.14;38.81;102537.41;7356069;19;19949;-59
2023/05/30 02:20:21;;;;;;;;;;;;;;;15.76;38.78;102477.41;7358290;19;19922;-59
2023/05/30 02:22:46;;;;;;;;;;;;;;;16.07;38.54;102543.69;7358064;19;19915;-58
2023/05/30 02:25:11;;;;;;;;;;;;;;;16.04;38.72;102543.72;7355571;19;20410;-59
2023/05/30 02:27:37;;;;;;;;;;;;;;;16.00;38.90;102544.66;7352076;19;19914;-59
2023/05/30 02:30:02;;;;;;;;;;;;;;;15.98;39.05;102554.34;7354770;19;19919;-60
2023/05/30 02:32:27;;;;;;;;;;;;;;;15.95;38.88;102557.03;7355412;19;19923;-59
2023/05/30 02:34:52;;;;;;;;;;;;;;;15.94;38.82;102557.94;7350741;19;19959;-57
2023/05/30 02:37:18;;;;;;;;;;;;;;;15.91;38.97;102552.69;7358441;19;19967;-58
2023/05/30 02:39:43;;;;;;;;;;;;;;;15.88;39.47;102553.63;7351981;19;22479;-59
2023/05/30 02:42:08;;;;;;;;;;;;;;;15.86;39.54;102554.53;7351104;19;20645;-59
2023/05/30 02:44:33;;;;;;;;;;;;;;;15.83;39.18;102553.69;7356370;19;19927;-59
2023/05/30 02:46:59;;;;;;;;;;;;;;;15.81;39.74;102551.97;7358330;19;20474;-59
2023/05/30 02:49:25;;;;;;;;;;;;;;;15.79;39.37;102543.22;7355265;19;19918;-59
2023/05/30 02:51:50;;;;;;;;;;;;;;;15.76;39.45;102556.41;7352022;19;19915;-58
2023/05/30 02:54:15;;;;;;;;;;;;;;;15.73;39.89;102554.72;7356221;19;19919;-59
2023/05/30 02:56:41;;;;;;;;;;;;;;;15.71;39.70;102556.53;7350432;19;20354;-59
2023/05/30 02:59:06;;;;;;;;;;;;;;;15.68;39.77;102569.72;7352352;19;19927;-59
2023/05/30 03:01:31;;;;;;;;;;;;;;;15.66;39.43;102568.88;7349346;19;19927;-59
2023/05/30 03:03:56;;;;;;;;;;;;;;;15.64;39.82;102564.50;7337197;19;19926;-59
2023/05/30 03:06:24;;;;;;;;;;;;;;;15.62;39.71;102566.28;7359876;19;19927;-59
2023/05/30 03:08:57;;;;;;;;;;;;;;;15.59;40.11;102582.97;7358979;19;19935;-59
2023/05/30 03:11:22;;;;;;;;;;;;;;;15.57;39.90;102574.25;7355278;19;20276;-58
2023/05/30 03:13:47;;;;;;;;;;;;;;;15.53;39.61;102580.44;7352852;19;19926;-59
2023/05/30 03:16:12;;;;;;;;;;;;;;;15.50;39.74;102583.97;7357142;19;20264;-59
2023/05/30 03:18:39;;;;;;;;;;;;;;;15.47;39.95;102583.16;7338365;19;21299;-58
2023/05/30 03:21:04;;;;;;;;;;;;;;;15.44;40.13;102578.78;7357964;19;19922;-59
2023/05/30 03:23:30;;;;;;;;;;;;;;;15.40;39.81;102581.47;7358137;19;19930;-59
2023/05/30 03:25:55;;;;;;;;;;;;;;;15.37;40.16;102576.25;7357875;19;19919;-59
2023/05/30 03:28:21;;;;;;;;;;;;;;;15.32;40.28;102590.34;7357461;19;19937;-59
2023/05/30 03:30:46;;;;;;;;;;;;;;;15.29;40.11;102579.84;7359086;19;19919;-59
2023/05/30 03:33:12;;;;;;;;;;;;;;;15.25;40.10;102577.25;7356243;19;19926;-58
2023/05/30 03:35:37;;;;;;;;;;;;;;;15.23;40.08;102579.06;7355643;19;19943;-59
2023/05/30 03:38:03;;;;;;;;;;;;;;;15.18;39.83;102579.09;7358165;19;19932;-59
2023/05/30 03:40:28;;;;;;;;;;;;;;;15.14;39.88;102580.03;7355830;19;19919;-59
2023/05/30 03:42:55;;;;;;;;;;;;;;;15.10;39.82;102586.22;7357707;19;20580;-59
2023/05/30 03:45:20;;;;;;;;;;;;;;;15.05;40.21;102583.66;7356769;19;20450;-59
2023/05/30 03:47:45;;;;;;;;;;;;;;;15.02;40.08;102585.44;7357506;19;20004;-58
2023/05/30 03:50:10;;;;;;;;;;;;;;;14.99;40.42;102585.47;7356348;19;19990;-58
2023/05/30 03:52:36;;;;;;;;;;;;;;;14.95;40.51;102595.16;7360042;19;19926;-59
2023/05/30 03:55:02;;;;;;;;;;;;;;;14.94;40.09;102595.16;7358193;19;20028;-59
2023/05/30 03:57:27;;;;;;;;;;;;;;;14.89;40.50;102589.09;7359802;19;19929;-59
2023/05/30 03:59:52;;;;;;;;;;;;;;;14.86;40.58;102579.47;7355885;19;19942;-59
2023/05/30 04:02:18;;;;;;;;;;;;;;;14.85;40.82;102587.38;7350300;19;20430;-59
2023/05/30 04:04:43;;;;;;;;;;;;;;;14.83;40.78;102584.75;7357845;19;19919;-59
2023/05/30 04:07:08;;;;;;;;;;;;;;;14.81;40.52;102583.03;7356878;19;19919;-59
2023/05/30 04:09:33;;;;;;;;;;;;;;;14.79;40.73;102586.53;7356806;19;19990;-59
2023/05/30 04:11:59;;;;;;;;;;;;;;;14.77;40.59;102583.06;7354803;19;19923;-59
2023/05/30 04:14:24;;;;;;;;;;;;;;;14.76;40.67;102583.97;7357701;19;20024;-59
2023/05/30 04:16:49;;;;;;;;;;;;;;;14.75;40.94;102582.22;7356681;19;19941;-57
2023/05/30 04:19:15;;;;;;;;;;;;;;;14.74;41.04;102585.72;7357124;19;19911;-58
2023/05/30 04:21:40;;;;;;;;;;;;;;;14.73;41.04;102586.59;7356309;19;20499;-59
2023/05/30 04:24:07;;;;;;;;;;;;;;;14.71;41.15;102588.38;7355777;19;19929;-59
2023/05/30 04:26:32;;;;;;;;;;;;;;;14.70;41.31;102584.03;7354443;19;19943;-58
2023/05/30 04:28:58;;;;;;;;;;;;;;;14.70;41.45;102593.66;7350892;19;19914;-60
2023/05/30 04:31:24;;;;;;;;;;;;;;;14.68;41.04;102590.16;7356243;19;20772;-59
2023/05/30 04:33:50;;;;;;;;;;;;;;;14.67;41.31;102593.69;7351837;19;19929;-59
2023/05/30 04:36:18;;;;;;;;;;;;;;;14.66;41.53;102590.19;7354486;19;20466;-59
2023/05/30 04:38:44;;;;;;;;;;;;;;;14.66;41.22;102591.97;7358216;19;19931;-59
2023/05/30 04:41:10;;;;;;;;;;;;;;;14.28;41.20;102530.03;7356691;19;20380;-61
2023/05/30 04:43:35;;;;;;;;;;;;;;;14.64;41.12;102593.72;7356712;19;19931;-60
2023/05/30 04:46:03;;;;;;;;;;;;;;;14.64;41.30;102589.31;7353531;19;20649;-60
2023/05/30 04:48:29;;;;;;;;;;;;;;;14.63;41.39;102592.84;7357449;19;20282;-59
2023/05/30 04:50:54;;;;;;;;;;;;;;;14.63;41.36;102595.47;7356095;19;19939;-60
2023/05/30 04:53:20;;;;;;;;;;;;;;;14.62;41.69;102591.09;7355072;19;19959;-60
2023/05/30 04:55:46;;;;;;;;;;;;;;;14.62;41.80;102585.84;7355992;19;19929;-59
2023/05/30 04:58:11;;;;;;;;;;;;;;;14.62;41.94;102590.22;7356905;19;19943;-59
2023/05/30 05:00:37;;;;;;;;;;;;;;;14.61;41.57;102589.38;7356433;19;19929;-59
2023/05/30 05:03:03;;;;;;;;;;;;;;;14.62;41.83;102591.09;7352367;19;19910;-59
2023/05/30 05:05:28;;;;;;;;;;;;;;;14.63;41.74;102598.09;7357496;19;19918;-59
2023/05/30 05:07:53;;;;;;;;;;;;;;;14.62;41.90;102593.72;7353820;19;19915;-59
2023/05/30 05:10:19;;;;;;;;;;;;;;;14.64;41.32;102597.22;7355447;19;19919;-59
2023/05/30 05:12:44;;;;;;;;;;;;;;;14.65;41.83;102596.34;7355875;19;19914;-60
2023/05/30 05:15:09;;;;;;;;;;;;;;;14.66;41.40;102598.09;7354692;19;19925;-60
2023/05/30 05:17:36;;;;;;;;;;;;;;;14.67;41.60;102604.22;7354968;19;20342;-60
2023/05/30 05:20:05;;;;;;;;;;;;;;;14.69;41.71;102608.56;7355092;19;19927;-59
2023/05/30 05:22:31;;;;;;;;;;;;;;;14.70;41.45;102602.44;7354571;19;19934;-59
2023/05/30 05:24:56;;;;;;;;;;;;;;;14.74;41.91;102612.00;7354062;19;19927;-59
2023/05/30 05:27:22;;;;;;;;;;;;;;;14.75;41.84;102603.25;7356598;19;20385;-59
2023/05/30 05:29:48;;;;;;;;;;;;;;;14.78;41.58;102607.59;7353263;19;19926;-60
2023/05/30 05:32:13;;;;;;;;;;;;;;;14.81;41.36;102606.72;7354278;19;20025;-59
2023/05/30 05:34:38;;;;;;;;;;;;;;;14.83;41.61;102610.19;7352881;19;20312;-60
2023/05/30 05:37:04;;;;;;;;;;;;;;;14.87;41.40;102606.66;7355866;19;19922;-60
2023/05/30 05:39:29;;;;;;;;;;;;;;;14.89;41.63;102610.13;7353060;19;19915;-60
2023/05/30 05:41:55;;;;;;;;;;;;;;;14.93;41.81;102611.84;7355584;19;20631;-59
2023/05/30 05:44:20;;;;;;;;;;;;;;;14.95;41.48;102610.06;7358836;19;19935;-60
2023/05/30 05:46:45;;;;;;;;;;;;;;;14.98;41.17;102612.66;7362081;19;20407;-59
2023/05/30 05:49:10;;;;;;;;;;;;;;;15.01;41.57;102612.66;7359436;19;19943;-59
2023/05/30 05:51:36;;;;;;;;;;;;;;;15.04;41.45;102618.72;7363132;19;19958;-58
2023/05/30 05:54:02;;;;;;;;;;;;;;;15.07;41.16;102617.84;7357645;19;19937;-60
2023/05/30 05:56:27;;;;;;;;;;;;;;;15.11;41.36;102627.44;7363332;19;19938;-58
2023/05/30 05:58:52;;;;;;;;;;;;;;;15.15;41.51;102630.91;7348994;19;19923;-60
2023/05/30 06:01:17;;;;;;;;;;;;;;;15.18;41.66;102629.09;7359259;19;21035;-60
2023/05/30 06:03:43;;;;;;;;;;;;;;;15.21;41.27;102623.81;7354852;19;19919;-60
2023/05/30 06:06:08;;;;;;;;;;;;;;;15.26;41.34;102629.91;7355988;19;19919;-59
2023/05/30 06:08:33;;;;;;;;;;;;;;;15.30;41.65;102638.63;7351726;19;20040;-60
2023/05/30 06:10:58;;;;;;;;;;;;;;;15.35;41.32;102639.44;7354443;19;19915;-60
2023/05/30 06:13:24;;;;;;;;;;;;;;;15.40;41.69;102644.66;7353652;19;19964;-59
2023/05/30 06:15:49;;;;;;;;;;;;;;;15.43;41.30;102642.00;7357442;19;19927;-59
2023/05/30 06:18:15;;;;;;;;;;;;;;;15.48;41.13;102637.53;7356230;19;19918;-59
2023/05/30 06:20:40;;;;;;;;;;;;;;;15.52;41.39;102644.53;7357779;19;20675;-59
2023/05/30 06:23:05;;;;;;;;;;;;;;;15.56;41.61;102635.66;7353796;19;19939;-60
2023/05/30 06:25:31;;;;;;;;;;;;;;;15.60;41.26;102632.13;7358853;19;19926;-59
2023/05/30 06:27:56;;;;;;;;;;;;;;;15.65;41.84;102630.31;7355307;19;20651;-59
2023/05/30 06:30:21;;;;;;;;;;;;;;;15.68;41.73;102630.28;7356548;19;20663;-59
2023/05/30 06:32:46;;;;;;;;;;;;;;;15.74;41.67;102632.84;7353641;19;19915;-59
2023/05/30 06:35:12;;;;;;;;;;;;;;;15.77;41.72;102638.09;7355006;19;20411;-60
2023/05/30 06:37:37;;;;;;;;;;;;;;;15.82;41.50;102643.28;7352711;19;19918;-60
2023/05/30 06:40:02;;;;;;;;;;;;;;;15.87;41.68;102645.88;7357402;19;19919;-59
2023/05/30 06:42:28;;;;;;;;;;;;;;;15.91;41.30;102644.91;7351210;19;19925;-60
2023/05/30 06:44:53;;;;;;;;;;;;;;;15.89;41.48;102631.75;7359205;19;19943;-59
2023/05/30 06:47:18;;;;;;;;;;;;;;;16.00;41.81;102652.69;7354040;19;20675;-60
2023/05/30 06:49:43;;;;;;;;;;;;;;;16.06;41.78;102639.41;7335133;19;21345;-57
2023/05/30 06:52:09;;;;;;;;;;;;;;;16.09;42.19;102642.91;7355335;19;19940;-57
2023/05/30 06:54:34;;;;;;;;;;;;;;;16.14;41.94;102642.81;7353153;19;19939;-57
2023/05/30 06:57:02;;;;;;;;;;;;;;;16.19;42.41;102641.00;7356527;19;19935;-57
2023/05/30 06:59:28;;;;;;;;;;;;;;;16.22;42.00;102640.97;7356602;19;19954;-58
2023/05/30 07:01:53;;;;;;;;;;;;;;;16.29;42.39;102650.50;7357238;19;19935;-57
2023/05/30 07:04:19;;;;;;;;;;;;;;;16.37;42.14;102646.88;7351093;19;19947;-57
2023/05/30 07:06:45;;;;;;;;;;;;;;;16.41;42.42;102654.69;7358005;19;20141;-58
2023/05/30 07:09:10;;;;;;;;;;;;;;;16.46;42.56;102652.00;7355146;19;19922;-57
2023/05/30 07:11:35;;;;;;;;;;;;;;;16.51;42.09;102652.78;7356194;19;19982;-57
2023/05/30 07:14:01;;;;;;;;;;;;;;;16.56;42.13;102662.38;7357947;19;19932;-57
2023/05/30 07:16:26;;;;;;;;;;;;;;;16.62;42.30;102653.47;7355821;19;19925;-57
2023/05/30 07:18:51;;;;;;;;;;;;;;;16.66;42.16;102644.63;7356994;19;19923;-57
2023/05/30 07:21:16;;;;;;;;;;;;;;;16.72;42.27;102654.22;7356997;19;19926;-57
2023/05/30 07:23:42;;;;;;;;;;;;;;;16.76;42.39;102646.25;7359316;19;19922;-58
2023/05/30 07:26:07;;;;;;;;;;;;;;;16.79;42.43;102651.47;7356850;19;20029;-57
2023/05/30 07:28:32;;;;;;;;;;;;;;;16.86;42.56;102644.31;7355897;19;19923;-57
2023/05/30 07:30:58;;;;;;;;;;;;;;;16.93;42.42;102655.63;7358525;19;19930;-57
2023/05/30 07:33:23;;;;;;;;;;;;;;;16.97;42.55;102654.66;7353306;19;19972;-57
2023/05/30 07:35:48;;;;;;;;;;;;;;;17.03;42.59;102657.19;7351110;19;19915;-57
2023/05/30 07:38:13;;;;;;;;;;;;;;;17.06;42.52;102655.38;7357235;19;19938;-58
2023/05/30 07:40:39;;;;;;;;;;;;;;;17.11;41.69;102658.81;7350124;19;19918;-57
2023/05/30 07:43:04;;;;;;;;;;;;;;;17.17;41.41;102663.09;7352623;19;19955;-57
2023/05/30 07:45:30;;;;;;;;;;;;;;;17.22;41.56;102657.72;7356555;19;20410;-57
2023/05/30 07:47:55;;;;;;;;;;;;;;;17.26;41.62;102662.91;7353762;19;19930;-57
2023/05/30 07:50:20;;;;;;;;;;;;;;;17.31;41.84;102663.69;7357104;19;19927;-57
2023/05/30 07:52:46;;;;;;;;;;;;;;;17.35;42.05;102668.03;7353928;19;20417;-58
2023/05/30 07:55:11;;;;;;;;;;;;;;;17.41;41.63;102660.88;7354790;19;19922;-57
2023/05/30 07:57:36;;;;;;;;;;;;;;;17.46;41.74;102672.22;7355947;19;21467;-57
2023/05/30 08:00:06;;;;;;;;;;;;;;;17.49;42.08;102669.53;7357777;19;20005;-57
2023/05/30 08:02:31;;;;;;;;;;;;;;;17.54;41.78;102672.97;7353370;19;19923;-57
2023/05/30 08:04:56;;;;;;;;;;;;;;;17.58;42.07;102664.03;7357113;19;19957;-57
2023/05/30 08:07:21;;;;;;;;;;;;;;;17.63;42.10;102667.47;7353599;19;19926;-57
2023/05/30 08:09:47;;;;;;;;;;;;;;;17.68;42.09;102664.72;7356116;19;20954;-57
2023/05/30 08:12:16;;;;;;;;;;;;;;;17.72;42.38;102671.69;7356033;19;20011;-57
2023/05/30 08:14:41;;;;;;;;;;;;;;;17.76;41.82;102666.34;7336579;19;20204;-57
2023/05/30 08:17:07;;;;;;;;;;;;;;;17.82;41.63;102667.97;7349717;19;19929;-57
2023/05/30 08:19:32;;;;;;;;;;;;;;;17.85;41.42;102665.28;7351898;19;19930;-57
2023/05/30 08:21:58;;;;;;;;;;;;;;;17.89;40.73;102659.91;7357496;19;19926;-57
2023/05/30 08:24:23;;;;;;;;;;;;;;;17.94;41.42;102672.13;7349891;19;19926;-57
2023/05/30 08:26:48;;;;;;;;;;;;;;;17.98;41.02;102663.22;7355804;19;19929;-57
2023/05/30 08:29:14;;;;;;;;;;;;;;;18.02;40.72;102664.91;7355656;19;19927;-58
2023/05/30 08:31:39;;;;;;;;;;;;;;;18.04;40.76;102669.22;7353359;19;19923;-57
2023/05/30 08:34:05;;;;;;;;;;;;;;;18.09;40.90;102672.66;7353071;19;19919;-57
2023/05/30 08:36:31;;;;;;;;;;;;;;;18.13;40.61;102666.38;7353701;19;20717;-57
2023/05/30 08:38:56;;;;;;;;;;;;;;;18.18;40.57;102671.56;7354900;19;20334;-57
2023/05/30 08:41:22;;;;;;;;;;;;;;;18.22;40.41;102662.66;7352949;19;19911;-58
2023/05/30 08:43:48;;;;;;;;;;;;;;;18.26;40.46;102664.34;7357189;19;19922;-57
2023/05/30 08:46:13;;;;;;;;;;;;;;;18.31;40.95;102662.47;7343939;19;20003;-57
2023/05/30 08:48:41;;;;;;;;;;;;;;;18.35;41.10;102658.84;7339207;19;19942;-57
2023/05/30 08:51:07;;;;;;;;;;;;;;;18.40;41.37;102666.66;7344115;19;20395;-57
2023/05/30 08:53:37;;;;;;;;;;;;;;;18.45;40.98;102669.19;7348094;19;20018;-57
2023/05/30 08:56:10;;;;;;;;;;;;;;;18.50;40.96;102662.00;7354363;19;19923;-57
2023/05/30 08:58:37;;;;;;;;;;;;;;;18.55;41.17;102670.69;7356425;19;20233;-57
2023/05/30 09:01:02;;;;;;;;;;;;;;;18.61;40.98;102667.91;7352936;19;19930;-57
2023/05/30 09:03:29;;;;;;;;;;;;;;;18.66;41.41;102673.97;7353795;19;19922;-58
2023/05/30 09:05:55;;;;;;;;;;;;;;;18.70;41.21;102670.34;7354174;19;19919;-57
2023/05/30 09:08:22;;;;;;;;;;;;;;;18.76;41.03;102664.06;7355682;19;20522;-58
2023/05/30 09:10:51;;;;;;;;;;;;;;;18.80;41.16;102666.56;7353731;19;20712;-57
2023/05/30 09:13:16;;;;;;;;;;;;;;;18.85;41.05;102663.78;7357648;19;19939;-58
2023/05/30 09:15:42;;;;;;;;;;;;;;;18.90;40.45;102668.06;7356259;19;19926;-58
2023/05/30 09:18:08;;;;;;;;;;;;;;;18.97;40.69;102659.97;7358495;19;20336;-57
2023/05/30 09:20:33;;;;;;;;;;;;;;;19.03;40.65;102665.09;7360323;19;19923;-57
2023/05/30 09:23:01;;;;;;;;;;;;;;;19.12;41.11;102667.50;7363227;19;19935;-58
2023/05/30 09:25:39;;;;;;;;;;;;;;;19.24;40.91;102672.44;7359801;19;20609;-58
2023/05/30 09:28:05;;;;;;;;;;;;;;;19.45;40.84;102670.97;7360454;19;19918;-57
2023/05/30 09:30:30;;;;;;;;;;;;;;;19.67;40.74;102672.16;7362254;19;19937;-57
2023/05/30 09:33:02;;;;;;;;;;;;;;;19.92;40.84;102666.09;7360090;19;19927;-58
2023/05/30 09:35:27;;;;;;;;;;;;;;;20.22;40.79;102674.88;7358754;19;19953;-57
2023/05/30 09:37:52;;;;;;;;;;;;;;;20.47;40.64;102670.53;7359072;19;20410;-58
2023/05/30 09:40:18;;;;;;;;;;;;;;;20.76;40.41;102666.06;7362023;19;19918;-57
2023/05/30 09:42:48;;;;;;;;;;;;;;;21.05;40.69;102665.06;7358424;19;19953;-57
2023/05/30 09:45:15;;;;;;;;;;;;;;;21.34;40.63;102669.38;7358856;19;20497;-58
2023/05/30 09:47:45;;;;;;;;;;;;;;;21.64;40.20;102667.31;7357944;19;19935;-58
2023/05/30 09:50:12;;;;;;;;;;;;;;;21.94;40.44;102664.41;7357190;19;21501;-58
2023/05/30 09:52:38;;;;;;;;;;;;;;;22.22;40.05;102664.22;7360338;19;19948;-58
2023/05/30 09:55:06;;;;;;;;;;;;;;;22.53;40.19;102659.38;7356039;19;19915;-58
2023/05/30 09:57:35;;;;;;;;;;;;;;;22.84;39.77;102665.19;7358945;19;20343;-58
2023/05/30 10:00:04;;;;;;;;;;;;;;;23.15;39.55;102672.75;7359657;19;19925;-58
2023/05/30 10:02:30;;;;;;;;;;;;;;;23.47;39.60;102677.50;7360762;19;19969;-58
2023/05/30 10:04:55;;;;;;;;;;;;;;;23.51;39.57;102631.06;7359714;19;19918;-58
2023/05/30 10:07:21;;;;;;;;;;;;;;;24.10;39.21;102689.72;7361040;19;20833;-58
2023/05/30 10:09:50;;;;;;;;;;;;;;;24.14;38.96;102632.59;7355010;19;19944;-58
2023/05/30 10:12:15;;;;;;;;;;;;;;;24.75;39.32;102682.97;7358516;19;19933;-57
2023/05/30 10:14:41;;;;;;;;;;;;;;;25.05;39.22;102678.72;7358661;19;19927;-58
2023/05/30 10:17:09;;;;;;;;;;;;;;;25.40;38.89;102680.50;7359181;19;19933;-58
2023/05/30 10:19:37;;;;;;;;;;;;;;;25.48;38.67;102635.44;7361411;19;19915;-58
2023/05/30 10:22:06;;;;;;;;;;;;;;;26.11;38.54;102681.88;7360425;19;19949;-60
2023/05/30 10:24:31;;;;;;;;;;;;;;;26.45;38.13;102679.94;7358922;19;20646;-61
2023/05/30 10:26:59;;;;;;;;;;;;;;;26.77;38.15;102669.16;7360182;19;19919;-60
2023/05/30 10:29:28;;;;;;;;;;;;;;;27.08;37.39;102682.47;7357429;19;20407;-60
2023/05/30 10:31:54;;;;;;;;;;;;;;;27.38;37.17;102685.06;7360968;19;19922;-60
2023/05/30 10:34:21;;;;;;;;;;;;;;;27.66;37.44;102684.19;7358768;19;19919;-60
2023/05/30 10:36:47;;;;;;;;;;;;;;;27.93;36.74;102686.09;7361414;19;20296;-61
2023/05/30 10:39:35;;;;;;;;;;;;;;;28.19;36.48;102681.72;7358654;19;19913;-60
2023/05/30 10:42:06;;;;;;;;;;;;;;;28.43;35.81;102669.34;7257139;19;2004158;-60
2023/05/30 10:44:31;;;;;;;;;;;;;;;28.64;35.35;102669.75;7357492;19;20258;-60
2023/05/30 10:46:59;;;;;;;;;;;;;;;28.87;35.44;102673.53;7359033;19;19919;-60
2023/05/30 10:49:28;;;;;;;;;;;;;;;29.13;35.24;102679.81;7359942;19;20466;-59
2023/05/30 10:52:00;;;;;;;;;;;;;;;29.38;34.82;102665.47;7356776;19;20003;-60
2023/05/30 10:54:28;;;;;;;;;;;;;;;29.66;34.76;102675.16;7360481;19;20625;-59
2023/05/30 10:56:53;;;;;;;;;;;;;;;29.95;34.55;102672.16;7354907;19;19946;-60
2023/05/30 10:59:19;;;;;;;;;;;;;;;30.21;33.97;102670.22;7361516;19;20790;-61
2023/05/30 11:02:06;;;;;;;;;;;;;;;30.48;33.68;102670.84;7360548;19;19923;-60
2023/05/30 11:04:34;;;;;;;;;;;;;;;30.83;34.58;102655.66;7256037;19;2004345;-60
2023/05/30 11:07:00;;;;;;;;;;;;;;;31.11;33.90;102667.84;7361730;19;19930;-61
2023/05/30 11:09:26;;;;;;;;;;;;;;;31.36;33.30;102664.94;7357669;19;20237;-60
2023/05/30 11:11:55;;;;;;;;;;;;;;;31.66;33.19;102677.81;7361440;19;19929;-60
2023/05/30 11:14:28;;;;;;;;;;;;;;;31.98;33.50;102677.03;7359233;19;20213;-60
2023/05/30 11:17:00;;;;;;;;;;;;;;;32.27;32.81;102669.19;7358455;19;19923;-60
2023/05/30 11:19:25;;;;;;;;;;;;;;;32.57;32.64;102665.78;7358161;19;19922;-60
2023/05/30 11:21:54;;;;;;;;;;;;;;;32.83;32.29;102659.97;7361477;19;19944;-60
2023/05/30 11:24:20;;;;;;;;;;;;;;;33.06;32.36;102656.16;7359278;19;19927;-59
2023/05/30 11:26:53;;;;;;;;;;;;;;;33.30;31.47;102663.94;7361706;19;20734;-59
2023/05/30 11:29:31;;;;;;;;;;;;;;;33.59;31.44;102664.06;7358875;19;19919;-60
2023/05/30 11:31:56;;;;;;;;;;;;;;;33.89;30.90;102665.00;7356813;19;19948;-60
2023/05/30 11:34:22;;;;;;;;;;;;;;;34.18;30.33;102659.66;7358569;19;19926;-60
2023/05/30 11:36:48;;;;;;;;;;;;;;;34.50;31.48;102659.38;7359419;19;19933;-60
2023/05/30 11:39:13;;;;;;;;;;;;;;;34.80;29.87;102656.47;7357082;19;19922;-60
2023/05/30 11:41:39;;;;;;;;;;;;;;;35.13;29.98;102656.97;7360215;19;20336;-60
2023/05/30 11:44:05;;;;;;;;;;;;;;;35.48;30.24;102655.38;7357378;19;19923;-60
2023/05/30 11:46:31;;;;;;;;;;;;;;;35.80;29.78;102663.09;7359068;19;20680;-60
2023/05/30 11:48:57;;;;;;;;;;;;;;;36.08;29.49;102653.00;7358731;19;19931;-60
2023/05/30 11:51:22;;;;;;;;;;;;;;;36.38;29.28;102652.59;7358514;19;20356;-60
2023/05/30 11:53:48;;;;;;;;;;;;;;;36.68;28.58;102658.66;7359934;19;19923;-61
2023/05/30 11:56:14;;;;;;;;;;;;;;;36.96;28.23;102651.22;7355968;19;19919;-60
2023/05/30 11:58:39;;;;;;;;;;;;;;;37.25;28.10;102652.69;7357453;19;19926;-60
2023/05/30 12:01:06;;;;;;;;;;;;;;;37.55;27.89;102659.50;7358410;19;19922;-61
2023/05/30 12:03:31;;;;;;;;;;;;;;;37.83;28.76;102652.78;7357592;19;19922;-60
2023/05/30 12:05:57;;;;;;;;;;;;;;;38.07;27.23;102653.81;7357923;19;19915;-60
2023/05/30 12:08:23;;;;;;;;;;;;;;;38.26;27.35;102658.97;7359213;19;20330;-61
2023/05/30 12:10:51;;;;;;;;;;;;;;;38.46;27.21;102664.09;7357721;19;19919;-61
2023/05/30 12:13:20;;;;;;;;;;;;;;;38.66;26.42;102665.44;7359182;19;20303;-60
2023/05/30 12:15:46;;;;;;;;;;;;;;;38.87;26.10;102668.50;7358385;19;19922;-61
2023/05/30 12:18:11;;;;;;;;;;;;;;;39.09;26.27;102655.16;7359052;19;19923;-61
2023/05/30 12:20:43;;;;;;;;;;;;;;;39.28;25.90;102657.47;7356690;19;19962;-60
2023/05/30 12:23:10;;;;;;;;;;;;;;;39.49;25.83;102672.41;7358495;19;19923;-60
2023/05/30 12:25:35;;;;;;;;;;;;;;;39.67;26.12;102670.31;7355355;19;20303;-60
2023/05/30 12:28:00;;;;;;;;;;;;;;;39.86;25.48;102678.06;7355417;19;19967;-61
2023/05/30 12:30:30;;;;;;;;;;;;;;;40.03;24.97;102675.19;7357819;19;19939;-60